Grantsburg, WI

7:27 PM CDT on April 29, 2017 (GMT -0500)
MLNDW3 | | Change Station

Elev 816 ft 45.74 °N, 92.80 °W | Updated 59 minutes ago

Clear
Clear
55.0 °F
Feels Like 55.0 °F
N
9.0
Wind Variable Wind from NE
Gusts 19.0 mph

Today
High -- | Low -- °F
--% Chance of Precip.
Yesterday
High -- | Low -- °F
Precip. -- in
Pressure 30.16 in
Visibility 10.0 miles
Clouds Clear
Dew Point 21.0 °F
Humidity 27%
Rainfall in
Snow Depth Not available.
6:01 AM 8:16 PM
Waxing Crescent, 17% visible
METAR KROS 300014Z AUTO 03015G21KT 10SM CLR 10/M02 A3016 RMK AO2 T01001025
Pressure 30.16 in
Visibility 10.0 miles
Clouds Clear
Dew Point 21.0 °F
Humidity 27%
Rainfall in
Snow Depth Not available.
6:01 AM 8:16 PM
Waxing Crescent, 17% visible
METAR KROS 300014Z AUTO 03015G21KT 10SM CLR 10/M02 A3016 RMK AO2 T01001025

Get Severe Weather Alerts

Thanks for signing up!

Be on the lookout for a verification email in your inbox.

You'll start receiving the daily forecast at 8 AM.

×

10-Day Weather Forecast

Almanac

Astronomy

Apr. 29, 2017 Rise Set
Actual Time
Civil Twilight
Nautical Twilight
Astronomical Twilight
Moon
Length of Visible Light
Length of Day
Tomorrow will be .
, % of the Moon is Illuminated

Today's Extremes

State Highs State Lows

Community

WunderPhotos

WunderBlog® & News

Nearby

Air Quality

  Air Quality AQ Index Pollutant
Not available.

Snow Depth

Station Depth Elevation

Earthquake Activity

City Distance Mag. Time & Date
Minimum magnitude displayed is 2.5.

Coastal Water Temperatures

Place Temperature

Stations

Nearby Weather Stations

Station Location Temp. Windchill Dew Point Humidity Wind Precip. Elev Updated Type
                   

Watches & Warnings

There are currently no watches in effect.